Kerveros — HPJR — position and weather

sailwx.info

Track history (hours):
 
Tides and Currents Weather Stations Pressure Air Temp Water Temp Dewpoint Dewpoint Depression Visibility Wind Speed Wind Dir Waves Ship Positions

Kerveros

Last reported at 2017-Oct-21 23:47 UTC. Time now 2017-Oct-22 10:28 UTC.
Position N 41°16' E 031°24'.

Length 225 m; draft 14.3 m.

Type: Cargo ship. MMSI: 354327000.

Date/timePositionNaut miles runAvg speedWind from/ knotsBaromVisibWave heightAir tempDewpointWater temp
2017-Oct-21 23:47N 41°16' E 031°24'0 0.0
2017-Oct-21 23:23N 41°16' E 031°24'0 0.0
2017-Oct-21 00:16N 41°16' E 031°24'0 0.0
2017-Oct-20 23:58N 41°16' E 031°24'0 0.0
2017-Oct-20 23:28N 41°16' E 031°24'0 0.0
2017-Oct-20 22:58N 41°16' E 031°24'0 0.0
2017-Oct-20 22:28N 41°16' E 031°24'0 0.0
2017-Oct-20 21:55N 41°16' E 031°24'0 0.0
2017-Oct-20 21:25N 41°16' E 031°24'0 0.0
2017-Oct-20 20:55N 41°16' E 031°24'0 0.0
2017-Oct-20 20:25N 41°16' E 031°24'0 0.0
2017-Oct-20 19:58N 41°16' E 031°24'0 0.0
2017-Oct-20 19:28N 41°16' E 031°24'0 0.0
2017-Oct-20 18:58N 41°16' E 031°24'0 0.0
2017-Oct-20 18:28N 41°16' E 031°24'0 0.0
2017-Oct-20 17:58N 41°16' E 031°24'0 0.0
2017-Oct-20 17:25N 41°16' E 031°24'0 0.0
2017-Oct-20 16:58N 41°16' E 031°24'0 0.0
2017-Oct-20 16:25N 41°16' E 031°24'0 0.0
2017-Oct-20 15:55N 41°16' E 031°24'0 0.0
2017-Oct-20 14:58N 41°16' E 031°24'0 0.0
2017-Oct-20 13:58N 41°16' E 031°24'0 0.0
2017-Oct-20 13:19N 41°16' E 031°24'0 0.0
2017-Oct-20 12:52N 41°16' E 031°24'0 0.0
2017-Oct-20 11:49N 41°16' E 031°24'0 0.0
2017-Oct-20 11:28N 41°16' E 031°24'0 0.1
2017-Oct-20 11:00N 41°16' E 031°24'1 2.5
2017-Oct-20 10:30N 41°17' E 031°23'4 2.5
2017-Oct-20 08:48N 41°17' E 031°18'3 3.8
2017-Oct-20 08:06N 41°18' E 031°14'1 9.0
2017-Oct-20 08:00N 41°18' E 031°13'4 8.4
2017-Oct-20 07:30N 41°18' E 031°08'510.5
2017-Oct-20 07:00N 41°18' E 031°01'4 7.3
2017-Oct-20 06:30N 41°18' E 030°56'5 9.8
2017-Oct-20 06:00N 41°18' E 030°49'510.1
2017-Oct-20 05:30N 41°18' E 030°42'5 9.8
2017-Oct-20 05:00N 41°18' E 030°36'5 9.9
2017-Oct-20 04:30N 41°18' E 030°29'5 9.9
2017-Oct-20 04:00N 41°18' E 030°23'510.0
2017-Oct-20 03:28N 41°18' E 030°15'510.0
2017-Oct-20 02:57N 41°18' E 030°09'510.2
2017-Oct-20 02:30N 41°18' E 030°03'910.1
2017-Oct-20 01:36N 41°18' E 029°50'110.1
2017-Oct-20 01:30N 41°18' E 029°49'510.0
2017-Oct-20 01:00N 41°18' E 029°42'510.1
2017-Oct-20 00:30N 41°18' E 029°36'510.4
2017-Oct-20 00:00N 41°18' E 029°29'510.4
2017-Oct-19 23:30N 41°18' E 029°22'510.0
2017-Oct-19 23:00N 41°17' E 029°15'5 9.7
2017-Oct-19 22:30N 41°15' E 029°10'5 9.5
2017-Oct-19 21:58N 41°11' E 029°05'5 8.7
2017-Oct-19 21:25N 41°06' E 029°04'8 9.2
2017-Oct-19 20:32N 40°59' E 028°60'2 8.7
2017-Oct-19 20:15N 40°57' E 028°59'6 9.7
2017-Oct-19 19:41N 40°52' E 028°55'410.9
2017-Oct-19 19:21N 40°49' E 028°52'6 5.7
2017-Oct-19 18:15N 40°43' E 028°52'0 0.9
2017-Oct-19 18:00N 40°43' E 028°52'0 0.6
2017-Oct-19 17:26N 40°43' E 028°52'0 0.6
2017-Oct-19 17:00N 40°43' E 028°52'0 0.7
2017-Oct-19 16:30N 40°43' E 028°53'0 0.7
2017-Oct-19 15:54N 40°44' E 028°53'2 0.6
2017-Oct-19 12:39N 40°45' E 028°54'0 0.5
2017-Oct-19 12:30N 40°45' E 028°54'0 0.5
2017-Oct-19 11:59N 40°45' E 028°54'16 4.3
2017-Oct-19 08:12N 40°50' E 028°33'1410.1
2017-Oct-19 06:48N 40°48' E 028°15'310.0
2017-Oct-19 06:30N 40°47' E 028°11'510.1
2017-Oct-19 06:00N 40°47' E 028°05'126 9.1
2017-Oct-18 16:08N 39°40' E 025°44'0 1.5
2017-Oct-18 16:00N 39°40' E 025°44'133 8.1
2017-Oct-17 23:32N 37°44' E 024°18'1610.2
2017-Oct-17 21:55N 37°31' E 024°05'185 9.2
2017-Oct-17 01:51N 36°19' E 020°32'411.2
2017-Oct-17 01:30N 36°19' E 020°27'611.3
2017-Oct-17 01:00N 36°19' E 020°20'611.3
2017-Oct-17 00:30N 36°19' E 020°13'1211.1
2017-Oct-16 23:25N 36°20' E 019°58'511.0
2017-Oct-16 23:00N 36°20' E 019°52'510.9
2017-Oct-16 22:30N 36°20' E 019°45'1911.0
2017-Oct-16 20:48N 36°20' E 019°22'1211.1
2017-Oct-16 19:43N 36°20' E 019°07'311.0
2017-Oct-16 19:27N 36°20' E 019°03'19010.8
2017-Oct-16 01:48N 36°22' E 015°07'411.1
2017-Oct-16 01:28N 36°22' E 015°02'511.1
2017-Oct-16 01:00N 36°23' E 014°56'611.2
2017-Oct-16 00:30N 36°23' E 014°49'611.3
2017-Oct-16 00:00N 36°23' E 014°42'611.4
2017-Oct-15 23:30N 36°23' E 014°35'611.4
2017-Oct-15 23:00N 36°24' E 014°28'611.6
2017-Oct-15 22:29N 36°25' E 014°21'611.5
2017-Oct-15 22:00N 36°25' E 014°14'611.4
2017-Oct-15 21:29N 36°26' E 014°06'511.2
2017-Oct-15 21:00N 36°27' E 013°60'611.3
2017-Oct-15 20:30N 36°29' E 013°53'611.4
2017-Oct-15 20:00N 36°31' E 013°46'611.4
2017-Oct-15 19:30N 36°33' E 013°40'611.2
2017-Oct-15 19:00N 36°34' E 013°33'611.1
2017-Oct-15 18:30N 36°36' E 013°27'611.1
2017-Oct-15 18:00N 36°38' E 013°20'510.9
2017-Oct-15 17:30N 36°40' E 013°14'510.7
2017-Oct-15 17:00N 36°42' E 013°08'510.3
2017-Oct-15 16:30N 36°44' E 013°02'510.5
2017-Oct-15 16:00N 36°46' E 012°56'510.8
2017-Oct-15 15:30N 36°48' E 012°49'610.8
2017-Oct-15 14:59N 36°50' E 012°43'1210.8
2017-Oct-15 13:55N 36°54' E 012°29'411.1
2017-Oct-15 13:30N 36°55' E 012°24'611.4
2017-Oct-15 13:00N 36°57' E 012°17'611.1
2017-Oct-15 12:30N 36°59' E 012°11'611.0
2017-Oct-15 11:59N 37°01' E 012°04'511.1
2017-Oct-15 11:30N 37°03' E 011°58'611.1
2017-Oct-15 10:58N 37°06' E 011°51'511.3
2017-Oct-15 10:30N 37°08' E 011°45'511.0
2017-Oct-15 10:01N 37°11' E 011°39'510.8
2017-Oct-15 09:30N 37°13' E 011°33'510.9
2017-Oct-15 09:00N 37°15' E 011°27'510.8
2017-Oct-15 08:30N 37°18' E 011°21'31010.7
2017-Oct-14 03:26N 37°13' E 004°52'1110.5
2017-Oct-14 02:25N 37°11' E 004°38'410.4
2017-Oct-14 02:00N 37°11' E 004°33'610.6
2017-Oct-14 01:25N 37°10' E 004°25'510.8
2017-Oct-14 01:00N 37°09' E 004°20'510.8
2017-Oct-14 00:30N 37°09' E 004°13'510.9
2017-Oct-14 00:00N 37°08' E 004°06'610.9
2017-Oct-13 23:25N 37°07' E 003°58'410.8
2017-Oct-13 23:00N 37°07' E 003°53'910.8
2017-Oct-13 22:10N 37°06' E 003°42'1111.0
2017-Oct-13 21:12N 37°04' E 003°28'311.0
2017-Oct-13 20:55N 37°04' E 003°25'711.0
2017-Oct-13 20:16N 37°03' E 003°16'311.0
2017-Oct-13 20:00N 37°03' E 003°12'711.2
2017-Oct-13 19:25N 37°02' E 003°04'511.1
2017-Oct-13 18:58N 37°01' E 002°58'510.9
2017-Oct-13 18:30N 37°01' E 002°51'610.9
2017-Oct-13 18:00N 36°60' E 002°45'510.8
2017-Oct-13 17:30N 36°59' E 002°38'510.7
2017-Oct-13 17:00N 36°58' E 002°31'510.7
2017-Oct-13 16:30N 36°58' E 002°25'510.8
2017-Oct-13 16:00N 36°57' E 002°18'610.8
2017-Oct-13 15:30N 36°56' E 002°11'610.8
2017-Oct-13 14:55N 36°55' E 002°04'510.9
2017-Oct-13 14:30N 36°54' E 001°58'611.1
2017-Oct-13 14:00N 36°53' E 001°51'611.3
2017-Oct-13 13:30N 36°52' E 001°44'611.1
2017-Oct-13 13:00N 36°51' E 001°37'611.1
2017-Oct-13 12:26N 36°50' E 001°30'611.1
2017-Oct-13 11:52N 36°49' E 001°22'410.8
2017-Oct-13 11:28N 36°48' E 001°17'1910.3
2017-Oct-13 09:39N 36°44' E 000°54'110.5
2017-Oct-13 09:30N 36°43' E 000°52'510.8
2017-Oct-13 09:00N 36°42' E 000°45'511.0
2017-Oct-13 08:30N 36°41' E 000°39'611.2
2017-Oct-13 08:00N 36°40' E 000°32'612.2
2017-Oct-13 07:30N 36°39' E 000°24'611.1
2017-Oct-13 07:00N 36°38' E 000°18'510.9
2017-Oct-13 06:30N 36°37' E 000°11'2211.1
2017-Oct-13 04:33N 36°32' W 000°16'111.2
2017-Oct-13 04:28N 36°32' W 000°16'711.1
2017-Oct-13 03:52N 36°30' W 000°25'411.0
2017-Oct-13 03:29N 36°29' W 000°30'511.1
2017-Oct-13 03:00N 36°28' W 000°36'611.2
2017-Oct-13 02:30N 36°27' W 000°43'611.1
2017-Oct-13 02:00N 36°26' W 000°50'611.1
2017-Oct-13 01:30N 36°25' W 000°57'611.1
2017-Oct-13 00:56N 36°24' W 001°04'1711.5
2017-Oct-12 23:28N 36°20' W 001°25'812.1
2017-Oct-12 22:50N 36°18' W 001°34'411.7
2017-Oct-12 22:28N 36°17' W 001°39'16510.9
2017-Oct-12 07:18N 36°02' W 005°03'411.2
2017-Oct-12 06:57N 36°01' W 005°08'511.1
2017-Oct-12 06:30N 36°01' W 005°14'611.4
2017-Oct-12 06:00N 35°59' W 005°21'510.8
2017-Oct-12 05:30N 35°58' W 005°27'510.3
2017-Oct-12 05:00N 35°56' W 005°33'5 9.3
2017-Oct-12 04:30N 35°55' W 005°39'6 8.6
2017-Oct-12 03:51N 35°55' W 005°45'3 9.4
2017-Oct-12 03:30N 35°55' W 005°50'5 9.5
2017-Oct-12 03:00N 35°55' W 005°55'5 9.2
2017-Oct-12 02:30N 35°54' W 006°01'15 9.8
2017-Oct-12 01:01N 35°55' W 006°19'0 9.8
2017-Oct-12 01:00N 35°55' W 006°19'  
Track history (hours):
 
Tides and Currents Weather Stations Pressure Air Temp Water Temp Dewpoint Dewpoint Depression Visibility Wind Speed Wind Dir Waves Ship Positions

Kerveros

Last reported at 2017-Oct-21 23:47 UTC. Time now 2017-Oct-22 10:28 UTC.
Position N 41°16' E 031°24'.

Length 225 m; draft 14.3 m.

Type: Cargo ship. MMSI: 354327000.

Date/timePositionNaut miles runAvg speedWind from/ knotsBaromVisibWave heightAir tempDewpointWater temp
2017-Oct-21 23:47N 41°16' E 031°24'0 0.0
2017-Oct-21 23:23N 41°16' E 031°24'0 0.0
2017-Oct-21 00:16N 41°16' E 031°24'0 0.0
2017-Oct-20 23:58N 41°16' E 031°24'0 0.0
2017-Oct-20 23:28N 41°16' E 031°24'0 0.0
2017-Oct-20 22:58N 41°16' E 031°24'0 0.0
2017-Oct-20 22:28N 41°16' E 031°24'0 0.0
2017-Oct-20 21:55N 41°16' E 031°24'0 0.0
2017-Oct-20 21:25N 41°16' E 031°24'0 0.0
2017-Oct-20 20:55N 41°16' E 031°24'0 0.0
2017-Oct-20 20:25N 41°16' E 031°24'0 0.0
2017-Oct-20 19:58N 41°16' E 031°24'0 0.0
2017-Oct-20 19:28N 41°16' E 031°24'0 0.0
2017-Oct-20 18:58N 41°16' E 031°24'0 0.0
2017-Oct-20 18:28N 41°16' E 031°24'0 0.0
2017-Oct-20 17:58N 41°16' E 031°24'0 0.0
2017-Oct-20 17:25N 41°16' E 031°24'0 0.0
2017-Oct-20 16:58N 41°16' E 031°24'0 0.0
2017-Oct-20 16:25N 41°16' E 031°24'0 0.0
2017-Oct-20 15:55N 41°16' E 031°24'0 0.0
2017-Oct-20 14:58N 41°16' E 031°24'0 0.0
2017-Oct-20 13:58N 41°16' E 031°24'0 0.0
2017-Oct-20 13:19N 41°16' E 031°24'0 0.0
2017-Oct-20 12:52N 41°16' E 031°24'0 0.0
2017-Oct-20 11:49N 41°16' E 031°24'0 0.0
2017-Oct-20 11:28N 41°16' E 031°24'0 0.1
2017-Oct-20 11:00N 41°16' E 031°24'1 2.5
2017-Oct-20 10:30N 41°17' E 031°23'4 2.5
2017-Oct-20 08:48N 41°17' E 031°18'3 3.8
2017-Oct-20 08:06N 41°18' E 031°14'1 9.0
2017-Oct-20 08:00N 41°18' E 031°13'4 8.4
2017-Oct-20 07:30N 41°18' E 031°08'510.5
2017-Oct-20 07:00N 41°18' E 031°01'4 7.3
2017-Oct-20 06:30N 41°18' E 030°56'5 9.8
2017-Oct-20 06:00N 41°18' E 030°49'510.1
2017-Oct-20 05:30N 41°18' E 030°42'5 9.8
2017-Oct-20 05:00N 41°18' E 030°36'5 9.9
2017-Oct-20 04:30N 41°18' E 030°29'5 9.9
2017-Oct-20 04:00N 41°18' E 030°23'510.0
2017-Oct-20 03:28N 41°18' E 030°15'510.0
2017-Oct-20 02:57N 41°18' E 030°09'510.2
2017-Oct-20 02:30N 41°18' E 030°03'910.1
2017-Oct-20 01:36N 41°18' E 029°50'110.1
2017-Oct-20 01:30N 41°18' E 029°49'510.0
2017-Oct-20 01:00N 41°18' E 029°42'510.1
2017-Oct-20 00:30N 41°18' E 029°36'510.4
2017-Oct-20 00:00N 41°18' E 029°29'510.4
2017-Oct-19 23:30N 41°18' E 029°22'510.0
2017-Oct-19 23:00N 41°17' E 029°15'5 9.7
2017-Oct-19 22:30N 41°15' E 029°10'5 9.5
2017-Oct-19 21:58N 41°11' E 029°05'5 8.7
2017-Oct-19 21:25N 41°06' E 029°04'8 9.2
2017-Oct-19 20:32N 40°59' E 028°60'2 8.7
2017-Oct-19 20:15N 40°57' E 028°59'6 9.7
2017-Oct-19 19:41N 40°52' E 028°55'410.9
2017-Oct-19 19:21N 40°49' E 028°52'6 5.7
2017-Oct-19 18:15N 40°43' E 028°52'0 0.9
2017-Oct-19 18:00N 40°43' E 028°52'0 0.6
2017-Oct-19 17:26N 40°43' E 028°52'0 0.6
2017-Oct-19 17:00N 40°43' E 028°52'0 0.7
2017-Oct-19 16:30N 40°43' E 028°53'0 0.7
2017-Oct-19 15:54N 40°44' E 028°53'2 0.6
2017-Oct-19 12:39N 40°45' E 028°54'0 0.5
2017-Oct-19 12:30N 40°45' E 028°54'0 0.5
2017-Oct-19 11:59N 40°45' E 028°54'16 4.3
2017-Oct-19 08:12N 40°50' E 028°33'1410.1
2017-Oct-19 06:48N 40°48' E 028°15'310.0
2017-Oct-19 06:30N 40°47' E 028°11'510.1
2017-Oct-19 06:00N 40°47' E 028°05'126 9.1
2017-Oct-18 16:08N 39°40' E 025°44'0 1.5
2017-Oct-18 16:00N 39°40' E 025°44'133 8.1
2017-Oct-17 23:32N 37°44' E 024°18'1610.2
2017-Oct-17 21:55N 37°31' E 024°05'185 9.2
2017-Oct-17 01:51N 36°19' E 020°32'411.2
2017-Oct-17 01:30N 36°19' E 020°27'611.3
2017-Oct-17 01:00N 36°19' E 020°20'611.3
2017-Oct-17 00:30N 36°19' E 020°13'1211.1
2017-Oct-16 23:25N 36°20' E 019°58'511.0
2017-Oct-16 23:00N 36°20' E 019°52'510.9
2017-Oct-16 22:30N 36°20' E 019°45'1911.0
2017-Oct-16 20:48N 36°20' E 019°22'1211.1
2017-Oct-16 19:43N 36°20' E 019°07'311.0
2017-Oct-16 19:27N 36°20' E 019°03'19010.8
2017-Oct-16 01:48N 36°22' E 015°07'411.1
2017-Oct-16 01:28N 36°22' E 015°02'511.1
2017-Oct-16 01:00N 36°23' E 014°56'611.2
2017-Oct-16 00:30N 36°23' E 014°49'611.3
2017-Oct-16 00:00N 36°23' E 014°42'611.4
2017-Oct-15 23:30N 36°23' E 014°35'611.4
2017-Oct-15 23:00N 36°24' E 014°28'611.6
2017-Oct-15 22:29N 36°25' E 014°21'611.5
2017-Oct-15 22:00N 36°25' E 014°14'611.4
2017-Oct-15 21:29N 36°26' E 014°06'511.2
2017-Oct-15 21:00N 36°27' E 013°60'611.3
2017-Oct-15 20:30N 36°29' E 013°53'611.4
2017-Oct-15 20:00N 36°31' E 013°46'611.4
2017-Oct-15 19:30N 36°33' E 013°40'611.2
2017-Oct-15 19:00N 36°34' E 013°33'611.1
2017-Oct-15 18:30N 36°36' E 013°27'611.1
2017-Oct-15 18:00N 36°38' E 013°20'510.9
2017-Oct-15 17:30N 36°40' E 013°14'510.7
2017-Oct-15 17:00N 36°42' E 013°08'510.3
2017-Oct-15 16:30N 36°44' E 013°02'510.5
2017-Oct-15 16:00N 36°46' E 012°56'510.8
2017-Oct-15 15:30N 36°48' E 012°49'610.8
2017-Oct-15 14:59N 36°50' E 012°43'1210.8
2017-Oct-15 13:55N 36°54' E 012°29'411.1
2017-Oct-15 13:30N 36°55' E 012°24'611.4
2017-Oct-15 13:00N 36°57' E 012°17'611.1
2017-Oct-15 12:30N 36°59' E 012°11'611.0
2017-Oct-15 11:59N 37°01' E 012°04'511.1
2017-Oct-15 11:30N 37°03' E 011°58'611.1
2017-Oct-15 10:58N 37°06' E 011°51'511.3
2017-Oct-15 10:30N 37°08' E 011°45'511.0
2017-Oct-15 10:01N 37°11' E 011°39'510.8
2017-Oct-15 09:30N 37°13' E 011°33'510.9
2017-Oct-15 09:00N 37°15' E 011°27'510.8
2017-Oct-15 08:30N 37°18' E 011°21'31010.7
2017-Oct-14 03:26N 37°13' E 004°52'1110.5
2017-Oct-14 02:25N 37°11' E 004°38'410.4
2017-Oct-14 02:00N 37°11' E 004°33'610.6
2017-Oct-14 01:25N 37°10' E 004°25'510.8
2017-Oct-14 01:00N 37°09' E 004°20'510.8
2017-Oct-14 00:30N 37°09' E 004°13'510.9
2017-Oct-14 00:00N 37°08' E 004°06'610.9
2017-Oct-13 23:25N 37°07' E 003°58'410.8
2017-Oct-13 23:00N 37°07' E 003°53'910.8
2017-Oct-13 22:10N 37°06' E 003°42'1111.0
2017-Oct-13 21:12N 37°04' E 003°28'311.0
2017-Oct-13 20:55N 37°04' E 003°25'711.0
2017-Oct-13 20:16N 37°03' E 003°16'311.0
2017-Oct-13 20:00N 37°03' E 003°12'711.2
2017-Oct-13 19:25N 37°02' E 003°04'511.1
2017-Oct-13 18:58N 37°01' E 002°58'510.9
2017-Oct-13 18:30N 37°01' E 002°51'610.9
2017-Oct-13 18:00N 36°60' E 002°45'510.8
2017-Oct-13 17:30N 36°59' E 002°38'510.7
2017-Oct-13 17:00N 36°58' E 002°31'510.7
2017-Oct-13 16:30N 36°58' E 002°25'510.8
2017-Oct-13 16:00N 36°57' E 002°18'610.8
2017-Oct-13 15:30N 36°56' E 002°11'610.8
2017-Oct-13 14:55N 36°55' E 002°04'510.9
2017-Oct-13 14:30N 36°54' E 001°58'611.1
2017-Oct-13 14:00N 36°53' E 001°51'611.3
2017-Oct-13 13:30N 36°52' E 001°44'611.1
2017-Oct-13 13:00N 36°51' E 001°37'611.1
2017-Oct-13 12:26N 36°50' E 001°30'611.1
2017-Oct-13 11:52N 36°49' E 001°22'410.8
2017-Oct-13 11:28N 36°48' E 001°17'1910.3
2017-Oct-13 09:39N 36°44' E 000°54'110.5
2017-Oct-13 09:30N 36°43' E 000°52'510.8
2017-Oct-13 09:00N 36°42' E 000°45'511.0
2017-Oct-13 08:30N 36°41' E 000°39'611.2
2017-Oct-13 08:00N 36°40' E 000°32'612.2
2017-Oct-13 07:30N 36°39' E 000°24'611.1
2017-Oct-13 07:00N 36°38' E 000°18'510.9
2017-Oct-13 06:30N 36°37' E 000°11'2211.1
2017-Oct-13 04:33N 36°32' W 000°16'111.2
2017-Oct-13 04:28N 36°32' W 000°16'711.1
2017-Oct-13 03:52N 36°30' W 000°25'411.0
2017-Oct-13 03:29N 36°29' W 000°30'511.1
2017-Oct-13 03:00N 36°28' W 000°36'611.2
2017-Oct-13 02:30N 36°27' W 000°43'611.1
2017-Oct-13 02:00N 36°26' W 000°50'611.1
2017-Oct-13 01:30N 36°25' W 000°57'611.1
2017-Oct-13 00:56N 36°24' W 001°04'1711.5
2017-Oct-12 23:28N 36°20' W 001°25'812.1
2017-Oct-12 22:50N 36°18' W 001°34'411.7
2017-Oct-12 22:28N 36°17' W 001°39'16510.9
2017-Oct-12 07:18N 36°02' W 005°03'411.2
2017-Oct-12 06:57N 36°01' W 005°08'511.1
2017-Oct-12 06:30N 36°01' W 005°14'611.4
2017-Oct-12 06:00N 35°59' W 005°21'510.8
2017-Oct-12 05:30N 35°58' W 005°27'510.3
2017-Oct-12 05:00N 35°56' W 005°33'5 9.3
2017-Oct-12 04:30N 35°55' W 005°39'6 8.6
2017-Oct-12 03:51N 35°55' W 005°45'3 9.4
2017-Oct-12 03:30N 35°55' W 005°50'5 9.5
2017-Oct-12 03:00N 35°55' W 005°55'5 9.2
2017-Oct-12 02:30N 35°54' W 006°01'15 9.8
2017-Oct-12 01:01N 35°55' W 006°19'0 9.8
2017-Oct-12 01:00N 35°55' W 006°19'  

Dump ship's entire track history